Time;durP1;ratioP1;P1;durP2;ratioP2;P2;SDS_P1;SDS_P2;PMS_P1;PMS_P2;Temp;Humidity;BMP_temperature;BMP_pressure;BME280_temperature;BME280_humidity;BME280_pressure;Samples;Min_cycle;Max_cycle;Signal;HPM_P1;HPM_P2
2021/05/08 00:04:34;;;;;;;3.50;3.20;;;8.70;32.90;;;;;;10450053;28;20718;-72
2021/05/08 00:09:38;;;;;;;3.63;3.07;;;8.50;33.00;;;;;;10447136;28;20312;-72
2021/05/08 00:14:43;;;;;;;3.70;3.10;;;8.20;33.30;;;;;;10450674;28;20225;-72
2021/05/08 00:19:45;;;;;;;3.47;3.17;;;8.00;33.20;;;;;;10450497;28;20668;-72
2021/05/08 00:24:48;;;;;;;3.23;2.93;;;7.80;33.60;;;;;;10450606;28;20320;-72
2021/05/08 00:29:50;;;;;;;3.30;3.00;;;7.60;34.00;;;;;;10425303;28;20320;-72
2021/05/08 00:34:52;;;;;;;2.77;2.57;;;7.50;34.00;;;;;;10446122;28;20315;-72
2021/05/08 00:39:55;;;;;;;4.47;2.93;;;7.40;34.10;;;;;;10448084;28;20268;-73
2021/05/08 00:44:58;;;;;;;2.70;2.50;;;7.40;34.50;;;;;;10448750;28;20228;-73
2021/05/08 00:50:00;;;;;;;3.07;2.57;;;7.40;34.40;;;;;;10449153;28;20317;-73
2021/05/08 00:55:04;;;;;;;3.50;2.53;;;7.40;34.40;;;;;;10452032;28;20308;-73
2021/05/08 01:00:09;;;;;;;2.53;2.33;;;7.40;34.70;;;;;;10452488;28;20847;-73
2021/05/08 01:05:12;;;;;;;2.87;2.60;;;7.50;34.60;;;;;;10456132;28;20256;-73
2021/05/08 01:10:16;;;;;;;2.67;2.33;;;7.50;34.60;;;;;;10442757;28;20233;-72
2021/05/08 01:15:18;;;;;;;3.07;2.70;;;7.60;34.50;;;;;;10443515;28;20783;-73
2021/05/08 01:20:22;;;;;;;3.27;2.43;;;7.70;34.40;;;;;;10447750;28;20283;-69
2021/05/08 01:25:27;;;;;;;2.57;2.37;;;7.80;34.40;;;;;;10444470;28;20224;-69
2021/05/08 01:30:31;;;;;;;2.90;2.60;;;7.80;34.40;;;;;;10451605;28;20306;-69
2021/05/08 01:35:35;;;;;;;3.30;2.87;;;7.80;34.20;;;;;;10451007;28;20286;-69
2021/05/08 01:40:40;;;;;;;3.27;2.60;;;7.80;34.00;;;;;;10443256;28;20440;-69
2021/05/08 01:45:42;;;;;;;2.80;2.60;;;7.70;34.00;;;;;;10448406;28;20250;-69
2021/05/08 01:50:44;;;;;;;3.97;3.13;;;7.70;34.10;;;;;;10453935;28;20314;-69
2021/05/08 01:55:48;;;;;;;2.77;2.57;;;7.60;34.10;;;;;;10452133;28;20232;-69
2021/05/08 02:00:50;;;;;;;4.40;2.37;;;7.60;34.40;;;;;;10453489;28;20342;-69
2021/05/08 02:05:53;;;;;;;2.50;2.30;;;7.60;34.30;;;;;;10453750;28;20241;-69
2021/05/08 02:10:56;;;;;;;2.80;2.60;;;7.60;34.30;;;;;;10441563;28;20236;-69
2021/05/08 02:15:59;;;;;;;2.83;2.60;;;7.60;34.50;;;;;;10442317;28;20213;-69
2021/05/08 02:21:01;;;;;;;2.37;2.17;;;7.50;34.30;;;;;;10455325;28;20768;-69
2021/05/08 02:26:05;;;;;;;2.83;2.63;;;7.50;34.10;;;;;;10452911;28;20230;-69
2021/05/08 02:31:07;;;;;;;2.40;2.20;;;7.50;34.30;;;;;;10465708;28;20218;-69
2021/05/08 02:36:09;;;;;;;3.03;2.50;;;7.40;34.10;;;;;;10457517;28;20286;-71
2021/05/08 02:41:12;;;;;;;3.00;2.70;;;7.40;34.90;;;;;;10451849;28;20320;-71
2021/05/08 02:46:15;;;;;;;2.63;2.43;;;7.40;34.30;;;;;;10467958;28;20237;-72
2021/05/08 02:51:17;;;;;;;2.67;2.47;;;7.40;34.30;;;;;;10452801;28;20794;-69
2021/05/08 02:56:20;;;;;;;2.60;2.40;;;7.40;34.20;;;;;;10459560;28;20895;-69
2021/05/08 03:01:23;;;;;;;2.60;2.40;;;7.40;34.40;;;;;;10465639;28;20243;-69
2021/05/08 03:06:25;;;;;;;2.80;2.60;;;7.40;34.20;;;;;;10458956;28;20311;-69
2021/05/08 03:11:28;;;;;;;2.93;2.37;;;7.30;34.20;;;;;;10444792;28;20252;-69
2021/05/08 03:16:38;;;;;;;2.60;2.40;;;7.30;34.30;;;;;;10448893;28;20229;-68
2021/05/08 03:21:41;;;;;;;2.90;2.70;;;7.30;34.30;;;;;;10463169;28;20252;-69
2021/05/08 03:26:44;;;;;;;2.90;2.70;;;7.30;34.30;;;;;;10454128;28;20794;-69
2021/05/08 03:31:46;;;;;;;2.90;2.70;;;7.20;34.30;;;;;;10448116;28;20308;-70
2021/05/08 03:36:49;;;;;;;2.50;2.30;;;7.20;34.30;;;;;;10466762;28;20225;-70
2021/05/08 03:41:52;;;;;;;2.90;2.70;;;7.20;34.30;;;;;;10454582;28;20286;-70
2021/05/08 03:46:54;;;;;;;2.67;2.47;;;7.20;34.40;;;;;;10458600;28;20229;-70
2021/05/08 03:52:01;;;;;;;2.77;2.57;;;7.10;34.10;;;;;;10456923;28;20264;-70
2021/05/08 03:57:05;;;;;;;3.03;2.70;;;7.10;34.40;;;;;;10447503;28;20243;-69
2021/05/08 04:02:07;;;;;;;2.63;2.43;;;7.10;34.40;;;;;;10457042;28;20589;-70
2021/05/08 04:07:10;;;;;;;3.10;2.87;;;7.10;34.20;;;;;;10456700;28;20241;-70
2021/05/08 04:12:13;;;;;;;2.60;2.40;;;7.00;34.20;;;;;;10455684;28;20316;-70
2021/05/08 04:17:15;;;;;;;3.43;3.13;;;7.00;34.40;;;;;;10449341;28;20255;-70
2021/05/08 04:22:17;;;;;;;2.80;2.60;;;7.00;34.40;;;;;;10459436;28;20278;-68
2021/05/08 04:27:21;;;;;;;2.50;2.30;;;6.90;34.40;;;;;;10452040;28;20717;-70
2021/05/08 04:32:24;;;;;;;3.23;2.93;;;6.90;34.60;;;;;;10445870;28;20594;-70
2021/05/08 04:37:26;;;;;;;3.70;3.40;;;6.90;34.70;;;;;;10461206;28;20760;-70
2021/05/08 04:42:30;;;;;;;3.50;3.20;;;7.00;34.90;;;;;;10451684;28;20623;-70
2021/05/08 04:47:32;;;;;;;3.40;3.10;;;7.00;35.10;;;;;;10459758;28;20236;-70
2021/05/08 04:52:35;;;;;;;2.87;2.67;;;7.00;35.10;;;;;;10454392;28;20708;-70
2021/05/08 04:57:38;;;;;;;3.20;2.83;;;7.00;35.10;;;;;;10448606;28;20229;-70
2021/05/08 05:02:42;;;;;;;3.30;3.00;;;7.10;35.40;;;;;;10447474;28;20327;-72
2021/05/08 05:07:45;;;;;;;3.83;3.17;;;7.00;35.40;;;;;;10442490;28;20228;-72
2021/05/08 05:12:48;;;;;;;3.50;3.20;;;7.00;35.40;;;;;;10455912;28;20578;-72
2021/05/08 05:17:53;;;;;;;2.73;2.50;;;7.10;35.80;;;;;;10440755;28;20252;-72
2021/05/08 05:22:55;;;;;;;3.17;2.97;;;7.10;35.80;;;;;;10445305;28;20242;-72
2021/05/08 05:27:58;;;;;;;3.90;3.50;;;7.20;36.00;;;;;;10428601;28;20791;-72
2021/05/08 05:33:00;;;;;;;3.73;3.43;;;7.20;36.20;;;;;;10447660;28;20316;-71
2021/05/08 05:38:03;;;;;;;3.17;2.87;;;7.30;36.20;;;;;;10464783;28;20275;-72
2021/05/08 05:43:09;;;;;;;4.07;3.37;;;7.30;36.40;;;;;;10442832;28;20240;-72
2021/05/08 05:48:11;;;;;;;3.80;3.50;;;7.40;36.90;;;;;;10453240;28;20793;-72
2021/05/08 05:53:14;;;;;;;3.73;3.40;;;7.50;37.00;;;;;;10457418;28;20233;-72
2021/05/08 05:58:17;;;;;;;4.27;3.93;;;7.60;37.00;;;;;;10459278;28;20782;-70
2021/05/08 06:03:19;;;;;;;4.37;3.97;;;7.80;37.30;;;;;;10460304;28;20236;-70
2021/05/08 06:08:21;;;;;;;3.83;3.43;;;8.00;37.20;;;;;;10465517;28;20267;-69
2021/05/08 06:13:25;;;;;;;6.43;3.93;;;8.10;37.10;;;;;;10451626;28;20225;-69
2021/05/08 06:18:27;;;;;;;4.63;3.50;;;8.30;37.30;;;;;;10449606;28;20339;-69
2021/05/08 06:23:31;;;;;;;4.03;3.73;;;8.50;37.30;;;;;;10462333;28;20239;-69
2021/05/08 06:28:34;;;;;;;3.77;3.47;;;8.70;37.60;;;;;;10465995;28;20322;-69
2021/05/08 06:33:36;;;;;;;3.40;3.10;;;8.90;37.50;;;;;;10461096;28;20233;-69
2021/05/08 06:38:38;;;;;;;4.90;4.40;;;9.10;37.60;;;;;;10455848;28;20220;-69
2021/05/08 06:43:42;;;;;;;4.17;3.77;;;9.40;37.90;;;;;;10455241;28;20723;-71
2021/05/08 06:48:44;;;;;;;4.47;4.07;;;9.60;38.10;;;;;;10452790;28;20315;-72
2021/05/08 06:53:46;;;;;;;4.80;4.03;;;9.80;37.90;;;;;;10466942;28;20315;-71
2021/05/08 06:58:50;;;;;;;4.03;3.63;;;10.10;37.20;;;;;;10454385;28;20244;-71
2021/05/08 07:03:53;;;;;;;3.23;2.87;;;10.40;37.50;;;;;;10454342;28;20239;-72
2021/05/08 07:09:00;;;;;;;2.73;2.53;;;10.70;37.00;;;;;;10455992;28;20589;-72
2021/05/08 07:14:04;;;;;;;2.60;2.40;;;11.00;36.70;;;;;;10450197;28;20743;-72
2021/05/08 07:19:06;;;;;;;2.33;2.13;;;11.30;36.80;;;;;;10451546;28;20236;-72
2021/05/08 07:24:09;;;;;;;4.60;2.37;;;11.60;36.40;;;;;;10453176;28;20295;-72
2021/05/08 07:29:14;;;;;;;2.60;2.40;;;11.90;36.30;;;;;;10458538;28;20374;-72
2021/05/08 07:34:16;;;;;;;2.60;2.40;;;12.20;35.90;;;;;;10458654;28;20625;-72
2021/05/08 07:39:19;;;;;;;2.40;2.20;;;12.50;36.10;;;;;;10449286;28;20268;-72
2021/05/08 07:44:22;;;;;;;3.80;2.30;;;12.80;35.80;;;;;;10451687;28;20255;-72
2021/05/08 07:49:24;;;;;;;3.67;2.30;;;13.00;35.60;;;;;;10444514;28;20680;-72
2021/05/08 07:54:26;;;;;;;2.43;2.00;;;13.30;35.20;;;;;;10448104;28;20259;-72
2021/05/08 07:59:30;;;;;;;2.50;1.90;;;13.60;34.60;;;;;;10454469;28;20311;-72
2021/05/08 08:04:32;;;;;;;2.27;2.00;;;13.80;33.40;;;;;;10440445;28;20272;-72
2021/05/08 08:09:34;;;;;;;3.87;2.20;;;14.10;32.20;;;;;;10448367;28;20227;-72
2021/05/08 08:14:38;;;;;;;2.50;2.00;;;14.30;32.10;;;;;;10445869;28;20270;-72
2021/05/08 08:19:42;;;;;;;2.33;1.93;;;14.50;31.70;;;;;;10449936;28;20320;-76
2021/05/08 08:24:44;;;;;;;2.13;1.87;;;14.70;31.80;;;;;;10461107;28;20715;-76
2021/05/08 08:29:48;;;;;;;2.00;1.80;;;14.90;32.00;;;;;;10444103;28;20243;-74
2021/05/08 08:34:50;;;;;;;2.87;2.00;;;15.20;31.60;;;;;;10449680;28;20232;-74
2021/05/08 08:39:52;;;;;;;2.17;1.80;;;15.40;30.80;;;;;;10448073;28;20889;-77
2021/05/08 08:44:57;;;;;;;2.57;2.00;;;15.60;30.60;;;;;;10444492;28;20255;-76
2021/05/08 08:50:01;;;;;;;2.10;1.77;;;15.70;30.20;;;;;;10448649;28;20240;-76
2021/05/08 08:55:07;;;;;;;2.03;1.80;;;15.90;30.00;;;;;;10432466;28;20216;-76
2021/05/08 09:00:13;;;;;;;2.00;1.90;;;16.10;30.00;;;;;;10431962;28;20276;-74
2021/05/08 09:05:18;;;;;;;1.87;1.77;;;16.20;29.10;;;;;;10448667;28;20225;-74
2021/05/08 09:10:22;;;;;;;4.37;1.80;;;16.40;29.40;;;;;;10448547;28;20233;-74
2021/05/08 09:15:37;;;;;;;2.17;1.77;;;16.50;29.60;;;;;;10448849;28;20311;-74
2021/05/08 09:20:44;;;;;;;1.70;1.60;;;16.60;28.10;;;;;;10447849;28;20233;-74
2021/05/08 09:26:11;;;;;;;2.00;1.80;;;16.80;28.40;;;;;;10448153;28;20248;-74
2021/05/08 09:31:14;;;;;;;2.53;1.90;;;16.90;28.00;;;;;;10438474;28;20232;-74
2021/05/08 09:36:21;;;;;;;1.50;1.40;;;17.10;28.90;;;;;;10456860;28;20239;-74
2021/05/08 09:41:46;;;;;;;3.67;1.70;;;17.20;28.80;;;;;;10456481;28;20225;-74
2021/05/08 09:46:49;;;;;;;2.23;1.80;;;17.30;28.30;;;;;;10449200;28;20311;-76
2021/05/08 09:51:58;;;;;;;1.80;1.70;;;17.40;28.50;;;;;;10454121;28;20229;-75
2021/05/08 09:57:01;;;;;;;2.00;1.70;;;17.40;26.00;;;;;;10458664;28;20237;-75
2021/05/08 10:02:16;;;;;;;1.70;1.60;;;17.50;28.20;;;;;;10451016;28;20225;-74
2021/05/08 10:07:37;;;;;;;1.60;1.50;;;17.60;26.70;;;;;;10460906;28;20231;-75
2021/05/08 10:12:39;;;;;;;2.07;1.50;;;17.80;28.20;;;;;;10449883;28;20319;-75
2021/05/08 10:17:46;;;;;;;2.13;1.70;;;17.90;28.40;;;;;;10454754;28;20302;-75
2021/05/08 10:22:50;;;;;;;1.77;1.67;;;18.10;27.40;;;;;;10457006;28;20262;-75
2021/05/08 10:27:52;;;;;;;1.67;1.57;;;18.20;26.80;;;;;;10454038;28;20319;-75
2021/05/08 10:32:57;;;;;;;2.07;1.80;;;18.20;27.30;;;;;;10456002;28;20712;-75
2021/05/08 10:38:20;;;;;;;1.70;1.47;;;18.30;27.00;;;;;;10455764;28;20240;-76
2021/05/08 10:43:40;;;;;;;2.50;1.80;;;18.40;25.50;;;;;;10459069;28;20303;-76
2021/05/08 10:49:18;;;;;;;1.90;1.80;;;18.40;26.60;;;;;;10458092;28;20235;-77
2021/05/08 10:54:51;;;;;;;1.67;1.57;;;18.50;25.70;;;;;;10441486;28;20225;-77
2021/05/08 11:00:30;;;;;;;2.50;1.80;;;18.70;25.60;;;;;;10455009;28;20272;-77
2021/05/08 11:05:39;;;;;;;2.17;1.80;;;18.70;26.00;;;;;;10453627;28;20232;-77
2021/05/08 11:10:44;;;;;;;2.37;1.70;;;18.80;26.70;;;;;;10457008;28;20253;-77
2021/05/08 11:16:08;;;;;;;1.80;1.70;;;18.90;26.80;;;;;;10466700;28;20306;-75
2021/05/08 11:21:50;;;;;;;2.07;1.83;;;19.00;25.90;;;;;;10451204;28;20245;-75
2021/05/08 11:26:53;;;;;;;1.93;1.83;;;19.10;25.50;;;;;;10445241;28;20316;-75
2021/05/08 11:31:56;;;;;;;2.13;1.93;;;19.00;25.90;;;;;;10452133;28;20256;-76
2021/05/08 11:37:00;;;;;;;2.27;2.10;;;19.00;26.00;;;;;;10455234;28;20224;-75
2021/05/08 11:42:10;;;;;;;1.70;1.60;;;19.00;26.10;;;;;;10459618;28;20224;-75
2021/05/08 11:47:30;;;;;;;1.83;1.73;;;19.00;25.80;;;;;;10451190;28;20264;-75
2021/05/08 11:52:37;;;;;;;1.57;1.47;;;19.10;25.80;;;;;;10438896;28;20233;-76
2021/05/08 11:57:44;;;;;;;1.60;1.50;;;19.30;24.80;;;;;;10446159;28;20317;-76
2021/05/08 12:02:47;;;;;;;1.70;1.60;;;19.30;24.90;;;;;;10435858;28;20252;-75
2021/05/08 12:07:49;;;;;;;2.00;1.80;;;19.30;25.30;;;;;;10451372;28;20237;-75
2021/05/08 12:12:54;;;;;;;1.80;1.70;;;19.30;25.40;;;;;;10452869;28;20309;-76
2021/05/08 12:17:58;;;;;;;1.70;1.60;;;19.40;24.90;;;;;;10453302;28;20244;-75
2021/05/08 12:23:04;;;;;;;1.70;1.60;;;19.40;24.90;;;;;;10459528;28;20225;-76
2021/05/08 12:28:14;;;;;;;1.60;1.50;;;19.50;25.00;;;;;;10457084;28;20225;-76
2021/05/08 12:33:17;;;;;;;1.83;1.67;;;19.60;23.50;;;;;;10457713;28;20303;-76
2021/05/08 12:38:26;;;;;;;2.10;2.00;;;19.60;25.00;;;;;;10453533;28;20315;-76
2021/05/08 12:43:31;;;;;;;2.13;1.93;;;19.60;23.60;;;;;;10443535;28;20651;-76
2021/05/08 12:48:36;;;;;;;1.70;1.60;;;19.60;23.70;;;;;;10461383;28;20355;-76
2021/05/08 12:53:39;;;;;;;3.17;2.20;;;19.70;25.00;;;;;;10444150;28;20248;-74
2021/05/08 12:58:43;;;;;;;2.00;1.77;;;19.60;25.00;;;;;;10450534;28;20225;-74
2021/05/08 13:03:45;;;;;;;2.10;1.70;;;19.70;24.50;;;;;;10447546;28;20311;-73
2021/05/08 13:08:49;;;;;;;1.63;1.53;;;19.80;24.30;;;;;;10447787;28;20239;-75
2021/05/08 13:14:16;;;;;;;1.80;1.70;;;19.70;24.20;;;;;;10431613;28;20282;-76
2021/05/08 13:19:18;;;;;;;2.07;1.87;;;19.70;24.10;;;;;;10444813;28;20291;-76
2021/05/08 13:24:24;;;;;;;1.80;1.70;;;19.90;25.00;;;;;;10447932;28;20263;-73
2021/05/08 13:29:28;;;;;;;1.80;1.70;;;19.90;23.40;;;;;;10433463;28;20316;-74
2021/05/08 13:34:34;;;;;;;1.70;1.60;;;20.00;24.00;;;;;;10443094;28;20307;-72
2021/05/08 13:39:36;;;;;;;1.50;1.40;;;20.10;24.30;;;;;;10433938;28;20574;-73
2021/05/08 13:44:40;;;;;;;2.30;1.40;;;20.20;24.10;;;;;;10423491;28;20237;-73
2021/05/08 13:49:42;;;;;;;1.63;1.53;;;20.30;23.40;;;;;;10405710;28;20229;-73
2021/05/08 13:54:44;;;;;;;1.70;1.60;;;20.30;23.40;;;;;;10443071;28;20233;-73
2021/05/08 13:59:48;;;;;;;1.50;1.40;;;20.30;23.60;;;;;;10447135;28;20240;-72
2021/05/08 14:04:53;;;;;;;1.60;1.50;;;20.30;23.50;;;;;;10447161;28;20229;-72
2021/05/08 14:09:56;;;;;;;2.57;1.43;;;20.30;23.50;;;;;;10430533;28;20313;-72
2021/05/08 14:14:59;;;;;;;1.37;1.27;;;20.30;23.50;;;;;;10440090;28;20286;-73
2021/05/08 14:20:02;;;;;;;2.10;1.30;;;20.40;23.20;;;;;;10454672;28;20720;-72
2021/05/08 14:25:05;;;;;;;1.30;1.27;;;20.40;23.20;;;;;;10454410;28;20283;-72
2021/05/08 14:30:11;;;;;;;1.50;1.40;;;20.50;23.00;;;;;;10454118;28;20242;-72
2021/05/08 14:35:13;;;;;;;1.27;1.20;;;20.60;22.40;;;;;;10449853;28;20234;-73
2021/05/08 14:40:16;;;;;;;1.20;1.20;;;20.60;23.00;;;;;;10430449;28;20233;-72
2021/05/08 14:45:20;;;;;;;1.10;1.10;;;20.60;22.90;;;;;;10453714;28;20308;-73
2021/05/08 14:50:22;;;;;;;1.30;1.20;;;20.60;22.80;;;;;;10419236;28;20313;-73
2021/05/08 14:55:25;;;;;;;1.53;1.40;;;20.60;23.10;;;;;;10453446;28;20254;-73
2021/05/08 15:00:28;;;;;;;2.03;1.30;;;20.70;23.10;;;;;;10452329;28;20260;-73
2021/05/08 15:05:30;;;;;;;3.53;1.03;;;20.70;23.00;;;;;;10453085;28;20693;-73
2021/05/08 15:10:32;;;;;;;0.90;0.90;;;20.70;23.20;;;;;;10452809;28;20658;-73
2021/05/08 15:15:35;;;;;;;1.10;1.10;;;20.70;23.00;;;;;;10453955;28;20224;-75
2021/05/08 15:20:38;;;;;;;1.90;1.80;;;20.70;23.40;;;;;;10450620;28;20247;-75
2021/05/08 15:25:41;;;;;;;1.20;1.00;;;20.80;23.10;;;;;;10452970;28;20295;-75
2021/05/08 15:30:44;;;;;;;1.20;1.20;;;20.90;23.10;;;;;;10446737;28;20228;-75
2021/05/08 15:35:46;;;;;;;6.73;5.67;;;20.90;22.80;;;;;;10445891;28;20246;-75
2021/05/08 15:40:51;;;;;;;3.10;2.30;;;20.90;22.90;;;;;;10434885;28;20236;-75
2021/05/08 15:45:54;;;;;;;2.20;2.00;;;20.90;22.90;;;;;;10444878;28;20225;-75
2021/05/08 15:50:57;;;;;;;3.93;1.90;;;20.90;22.80;;;;;;10446083;28;20307;-74
2021/05/08 15:55:59;;;;;;;1.40;1.30;;;21.00;23.00;;;;;;10443837;28;20244;-74
2021/05/08 16:01:03;;;;;;;1.50;1.40;;;21.10;22.80;;;;;;10451126;28;20225;-74
2021/05/08 16:06:08;;;;;;;1.27;1.23;;;21.20;22.50;;;;;;10446454;28;20571;-74
2021/05/08 16:11:10;;;;;;;1.57;1.10;;;21.20;22.60;;;;;;10443719;28;21004;-76
2021/05/08 16:16:13;;;;;;;1.20;1.10;;;21.30;23.00;;;;;;10448108;28;20248;-75
2021/05/08 16:21:18;;;;;;;1.47;1.00;;;21.30;22.30;;;;;;10455442;28;20303;-74
2021/05/08 16:26:21;;;;;;;3.93;1.10;;;21.30;22.40;;;;;;10460521;28;20236;-74
2021/05/08 16:31:25;;;;;;;0.90;0.90;;;21.40;22.70;;;;;;10447104;28;20229;-74
2021/05/08 16:36:27;;;;;;;1.20;1.10;;;21.30;22.40;;;;;;10441159;28;20229;-75
2021/05/08 16:41:29;;;;;;;1.50;1.00;;;21.40;22.60;;;;;;10447021;28;20235;-75
2021/05/08 16:46:33;;;;;;;0.93;0.93;;;21.30;22.60;;;;;;10453468;28;20798;-74
2021/05/08 16:51:40;;;;;;;1.10;1.00;;;21.30;22.40;;;;;;10441883;28;20233;-74
2021/05/08 16:56:43;;;;;;;1.20;1.10;;;21.30;22.40;;;;;;10448660;28;20323;-76
2021/05/08 17:01:46;;;;;;;1.17;0.90;;;21.30;22.50;;;;;;10444817;28;20261;-75
2021/05/08 17:06:48;;;;;;;0.90;0.90;;;21.20;22.20;;;;;;10440775;28;20244;-74
2021/05/08 17:11:51;;;;;;;1.00;1.00;;;21.20;22.20;;;;;;10451873;28;20270;-74
2021/05/08 17:16:54;;;;;;;1.00;1.00;;;21.10;22.40;;;;;;10439364;28;20229;-74
2021/05/08 17:21:57;;;;;;;0.97;0.97;;;21.00;22.10;;;;;;10439981;28;20236;-74
2021/05/08 17:27:00;;;;;;;1.20;0.90;;;21.00;22.30;;;;;;10445483;28;20243;-74
2021/05/08 17:32:04;;;;;;;1.63;1.40;;;21.00;22.30;;;;;;10449462;28;20283;-75
2021/05/08 17:37:07;;;;;;;2.27;1.57;;;20.90;22.30;;;;;;10439934;28;20499;-75
2021/05/08 17:42:11;;;;;;;1.40;1.30;;;20.80;22.50;;;;;;10446709;28;20233;-74
2021/05/08 17:47:14;;;;;;;2.80;2.60;;;20.70;22.60;;;;;;10438797;28;20225;-74
2021/05/08 17:52:16;;;;;;;2.07;1.90;;;20.60;22.70;;;;;;10438852;28;20249;-74
2021/05/08 17:57:19;;;;;;;2.97;2.20;;;20.50;22.70;;;;;;10443422;28;20257;-76
2021/05/08 18:02:22;;;;;;;2.90;1.90;;;20.40;22.80;;;;;;10459934;28;20241;-74
2021/05/08 18:07:26;;;;;;;2.40;2.20;;;20.40;22.90;;;;;;10450723;28;20236;-75
2021/05/08 18:12:28;;;;;;;4.37;2.00;;;20.30;23.00;;;;;;10449601;28;20228;-74
2021/05/08 18:17:33;;;;;;;1.77;1.60;;;20.30;23.20;;;;;;10448720;28;20283;-74
2021/05/08 18:22:38;;;;;;;1.90;1.70;;;20.20;23.00;;;;;;10445703;28;20236;-74
2021/05/08 18:27:40;;;;;;;1.67;1.57;;;20.10;23.10;;;;;;10457099;28;20817;-74
2021/05/08 18:32:43;;;;;;;2.07;1.70;;;20.10;23.30;;;;;;10438708;28;20311;-74
2021/05/08 18:37:48;;;;;;;4.93;3.53;;;20.00;23.40;;;;;;10443393;28;20800;-74
2021/05/08 18:42:50;;;;;;;3.70;3.20;;;19.90;23.40;;;;;;10438575;28;20253;-74
2021/05/08 18:47:53;;;;;;;2.73;2.53;;;19.90;23.50;;;;;;10449728;28;20233;-74
2021/05/08 18:52:56;;;;;;;2.70;2.50;;;19.80;23.50;;;;;;10452822;28;20225;-74
2021/05/08 18:57:58;;;;;;;2.83;2.43;;;19.80;23.50;;;;;;10456156;28;20221;-75
2021/05/08 19:03:01;;;;;;;3.20;2.90;;;19.70;23.50;;;;;;10456469;28;20257;-75
2021/05/08 19:08:05;;;;;;;2.40;2.20;;;19.60;23.70;;;;;;10443721;28;20722;-75
2021/05/08 19:13:07;;;;;;;4.97;3.57;;;19.50;23.90;;;;;;10441297;28;20317;-74
2021/05/08 19:18:10;;;;;;;3.83;2.70;;;19.40;23.90;;;;;;10441367;28;20224;-74
2021/05/08 19:23:12;;;;;;;3.33;2.60;;;19.40;23.90;;;;;;10453548;28;20706;-74
2021/05/08 19:28:14;;;;;;;2.80;2.60;;;19.40;24.00;;;;;;10432125;28;20323;-77
2021/05/08 19:33:18;;;;;;;2.20;2.00;;;19.40;24.10;;;;;;10454680;28;20221;-77
2021/05/08 19:38:20;;;;;;;1.90;1.80;;;19.30;24.20;;;;;;10453960;28;20217;-76
2021/05/08 19:43:22;;;;;;;3.00;2.10;;;19.30;24.10;;;;;;10448659;28;20248;-76
2021/05/08 19:48:26;;;;;;;2.77;2.07;;;19.20;24.10;;;;;;10449521;28;20304;-76
2021/05/08 19:53:28;;;;;;;2.60;2.40;;;19.20;24.30;;;;;;10438228;28;20247;-75
2021/05/08 19:58:30;;;;;;;3.33;2.90;;;19.10;24.20;;;;;;10444148;28;20479;-76
2021/05/08 20:03:35;;;;;;;3.30;2.73;;;19.10;24.30;;;;;;10437433;28;20312;-76
2021/05/08 20:08:38;;;;;;;4.87;4.47;;;19.00;24.60;;;;;;10434471;28;20789;-75
2021/05/08 20:13:40;;;;;;;3.57;3.27;;;18.90;24.40;;;;;;10442805;28;20316;-75
2021/05/08 20:18:43;;;;;;;3.00;2.80;;;18.70;24.40;;;;;;10444590;28;21030;-75
2021/05/08 20:23:45;;;;;;;2.50;2.30;;;18.60;24.40;;;;;;10432879;28;20241;-74
2021/05/08 20:28:48;;;;;;;2.37;2.17;;;18.50;24.30;;;;;;10429264;28;20317;-75
2021/05/08 20:33:51;;;;;;;2.17;1.97;;;18.40;24.20;;;;;;10441168;28;20229;-76
2021/05/08 20:38:53;;;;;;;3.43;2.83;;;18.30;24.20;;;;;;10443967;28;20323;-75
2021/05/08 20:43:56;;;;;;;3.47;3.17;;;18.10;24.00;;;;;;10449068;28;20232;-75
2021/05/08 20:48:59;;;;;;;2.30;2.10;;;18.00;24.00;;;;;;10427978;28;20225;-75
2021/05/08 20:54:02;;;;;;;3.87;3.27;;;18.00;24.00;;;;;;10451104;28;20255;-74
2021/05/08 20:59:04;;;;;;;2.07;1.87;;;17.90;23.90;;;;;;10448056;28;20233;-75
2021/05/08 21:04:07;;;;;;;2.17;2.07;;;17.80;23.80;;;;;;10448717;28;20284;-75
2021/05/08 21:09:10;;;;;;;2.00;1.80;;;17.70;23.80;;;;;;10442822;28;20735;-73
2021/05/08 21:14:12;;;;;;;2.53;1.77;;;17.60;23.90;;;;;;10446277;28;20644;-73
2021/05/08 21:19:16;;;;;;;1.60;1.50;;;17.50;24.00;;;;;;10439089;28;20233;-73
2021/05/08 21:24:18;;;;;;;1.70;1.60;;;17.40;24.30;;;;;;10452610;28;20237;-72
2021/05/08 21:29:21;;;;;;;1.80;1.70;;;17.40;24.40;;;;;;10439521;28;20245;-73
2021/05/08 21:34:24;;;;;;;1.83;1.73;;;17.40;24.40;;;;;;10445688;28;20848;-72
2021/05/08 21:39:26;;;;;;;2.00;1.80;;;17.40;24.60;;;;;;10441966;28;20315;-72
2021/05/08 21:44:29;;;;;;;2.03;1.93;;;17.40;24.50;;;;;;10444309;28;20220;-73
2021/05/08 21:49:32;;;;;;;1.93;1.53;;;17.30;24.40;;;;;;10440155;28;20652;-73
2021/05/08 21:54:46;;;;;;;1.83;1.70;;;17.30;24.50;;;;;;10448685;28;20801;-72
2021/05/08 21:59:48;;;;;;;3.20;3.00;;;17.30;24.60;;;;;;10444354;28;20304;-72
2021/05/08 22:04:52;;;;;;;2.40;2.20;;;17.10;24.40;;;;;;10442262;28;20685;-73
2021/05/08 22:10:06;;;;;;;2.00;1.90;;;17.00;24.50;;;;;;10443952;28;20237;-72
2021/05/08 22:15:10;;;;;;;1.87;1.77;;;16.80;24.40;;;;;;10449894;28;20307;-71
2021/05/08 22:20:13;;;;;;;2.57;1.50;;;16.70;24.50;;;;;;10453895;28;20263;-72
2021/05/08 22:25:16;;;;;;;1.90;1.70;;;16.50;24.50;;;;;;10452617;28;20228;-72
2021/05/08 22:30:19;;;;;;;3.60;1.80;;;16.30;24.60;;;;;;10448997;28;20225;-73
2021/05/08 22:35:23;;;;;;;1.70;1.60;;;16.20;24.90;;;;;;10453106;28;20227;-73
2021/05/08 22:40:26;;;;;;;1.77;1.53;;;16.10;25.10;;;;;;10444369;28;20240;-71
2021/05/08 22:45:28;;;;;;;4.57;2.10;;;16.10;25.20;;;;;;10457912;28;20227;-72
2021/05/08 22:50:35;;;;;;;1.67;1.57;;;16.10;25.20;;;;;;10453645;28;20236;-72
2021/05/08 22:55:37;;;;;;;2.87;1.90;;;16.10;25.20;;;;;;10462322;28;20263;-72
2021/05/08 23:00:39;;;;;;;1.80;1.70;;;16.10;25.10;;;;;;10446860;28;20640;-72
2021/05/08 23:05:42;;;;;;;1.63;1.50;;;16.00;25.20;;;;;;10463595;28;20482;-73
2021/05/08 23:10:45;;;;;;;1.70;1.57;;;16.00;25.50;;;;;;10495118;28;20379;-72
2021/05/08 23:15:47;;;;;;;1.70;1.57;;;16.00;25.60;;;;;;10491756;28;20278;-72
2021/05/08 23:20:50;;;;;;;1.80;1.60;;;15.90;25.60;;;;;;10482432;28;20709;-72
2021/05/08 23:25:52;;;;;;;1.97;1.80;;;15.90;25.60;;;;;;10453621;28;20233;-72
2021/05/08 23:30:55;;;;;;;2.07;1.87;;;15.80;25.60;;;;;;10453237;28;20241;-72
2021/05/08 23:35:58;;;;;;;2.00;1.87;;;15.70;25.60;;;;;;10453189;28;20235;-72
2021/05/08 23:41:00;;;;;;;2.37;1.80;;;15.60;25.80;;;;;;10452603;28;20748;-73
2021/05/08 23:46:07;;;;;;;2.23;2.10;;;15.50;25.70;;;;;;10452934;28;20225;-72
2021/05/08 23:51:10;;;;;;;2.53;1.90;;;15.40;25.80;;;;;;10452278;28;20319;-73
2021/05/08 23:56:12;;;;;;;2.20;2.00;;;15.30;26.00;;;;;;10452485;28;20233;-72
